^^
Datos históricos de la estación: Murcia-Puente Tocinos
Diario Informe para Enero 31, 2019 Unidades:  Ingés    Métrico   Ambas
Diario Semanal Mensual Anual
  Máxima: Mínima: Promedio:
Temperatura: 91 °F 72.3 °F 81 °F
Punto de rocio: 68.2 °F 62.2 °F 65.3 °F
Humedad: 81% 39.5% 61%
Velocidad viento: 9.7mph 0mph 3.7mph
Racha viento: 17.5mph - -
Viento- - SE
Presión: 30 in 29.9 in -
Precipitación: 0 in    
 
 
Tabla de datos para Enero 31, 2019
Hora Temperatura Punto de rocio Presión Viento Velocidad viento Racha viento Humedad Intensidad lluvia(por hora) Nubes
00:04 76.6 °F 67.8 °F 30 in ENE 1.4 mph 2 mph 74% 0 in
00:09 76.6 °F 67.6 °F 30 in North 1 mph 2.4 mph 74% 0 in
00:14 76.6 °F 67.8 °F 30 in Calm   2.3 mph 74.3% 0 in
00:19 76.6 °F 68 °F 30 in Calm   2.4 mph 75% 0 in
00:24 76.5 °F 68 °F 30 in Calm   4.7 mph 75% 0 in
00:29 76.6 °F 68 °F 30 in Oeste 0.5 mph 5 mph 75% 0 in
00:34 76.6 °F 68.2 °F 30 in Oeste 1.8 mph 2 mph 75% 0 in
00:39 76.6 °F 68.2 °F 30 in Oeste 1.3 mph   75% 0 in
00:44 76.6 °F 68.2 °F 30 in Calm     75% 0 in
00:49 76.6 °F 67.8 °F 30 in Calm   3.5 mph 74.3% 0 in
00:54 76.5 °F 67.6 °F 30 in Calm   5.2 mph 74% 0 in
00:59 76.5 °F 67.6 °F 30 in Este 0.7 mph 5.8 mph 73.9% 0 in
01:04 76.5 °F 67.5 °F 30 in Este 2 mph 6 mph 74% 0 in
01:09 76.3 °F 67.6 °F 30 in ESE 1.8 mph 3.5 mph 74.8% 0 in
01:14 76.3 °F 67.6 °F 30 in SE 1.4 mph 3 mph 74.8% 0 in
01:19 76.5 °F 67.8 °F 30 in SE 1 mph 2 mph 75% 0 in
01:24 76.5 °F 67.8 °F 30 in Calm   1.4 mph 75% 0 in
01:29 76.5 °F 67.8 °F 30 in Calm   2.3 mph 75% 0 in
01:34 76.3 °F 67.8 °F 30 in Calm   2 mph 75% 0 in
01:39 76.3 °F 67.8 °F 30 in Calm   2.4 mph 75% 0 in
01:44 76.1 °F 67.6 °F 30 in Calm   2 mph 75.2% 0 in
01:49 75.9 °F 67.5 °F 30 in Calm     75% 0 in
01:54 75.9 °F 67.6 °F 30 in Calm     75.7% 0 in
01:59 75.7 °F 67.3 °F 30 in Calm   2.9 mph 75.2% 0 in
02:04 75.7 °F 67.1 °F 30 in Calm   4.6 mph 74.4% 0 in
02:09 75.7 °F 66.7 °F 30 in SSE 0.6 mph 5 mph 74% 0 in
02:14 75.6 °F 66.7 °F 30 in SSE 2 mph 5 mph 74.1% 0 in
02:19 75.6 °F 67.1 °F 30 in SSE 2 mph 5 mph 75% 0 in
02:24 75.6 °F 67.1 °F 30 in SE 2 mph 2.3 mph 75% 0 in
02:29 75.6 °F 67.1 °F 30 in Este 1.4 mph 2.9 mph 75% 0 in
02:34 75.6 °F 67.3 °F 30 in Calm   3 mph 75.4% 0 in
02:39 75.4 °F 67.3 °F 30 in Este 0.4 mph 3 mph 76% 0 in
02:44 75.2 °F 67.1 °F 30 in ESE 1.4 mph 4.7 mph 75.6% 0 in
02:49 75 °F 66.9 °F 30 in SSE 1.7 mph 5 mph 75.9% 0 in
02:54 74.8 °F 66.9 °F 30 in Sur 2.4 mph 5 mph 76% 0 in
02:59 74.8 °F 67.1 °F 30 in Sur 2.1 mph 3 mph 77% 0 in
03:04 74.8 °F 67.1 °F 30 in Sur 1.4 mph 3.5 mph 77% 0 in
03:09 75 °F 67.3 °F 30 in Sur 1 mph 3.6 mph 77% 0 in
03:14 75 °F 66.9 °F 30 in Calm   4 mph 76% 0 in
03:19 75.4 °F 67.3 °F 30 in Sur 0.4 mph 3 mph 76% 0 in
03:24 75.4 °F 67.3 °F 30 in SSE 1.4 mph 3.5 mph 76% 0 in
03:29 75.4 °F 67.3 °F 30 in Sur 1.4 mph 4.6 mph 76% 0 in
03:34 75.4 °F 67.3 °F 30 in SO 1.4 mph 5 mph 76% 0 in
03:39 75.4 °F 67.1 °F 30 in SO 1.6 mph 4.7 mph 75.3% 0 in
03:44 75.4 °F 66.9 °F 30 in SSO 2 mph 5 mph 75% 0 in
03:49 75.4 °F 66.9 °F 30 in SO 2 mph 5 mph 75% 0 in
03:54 75.4 °F 66.9 °F 30 in SO 2 mph 5 mph 75% 0 in
03:59 75.4 °F 66.9 °F 30 in SO 2 mph 5 mph 75% 0 in
04:04 75.2 °F 66.7 °F 30 in SO 2 mph 3 mph 75% 0 in
04:09 75 °F 66.6 °F 30 in OSO 1.4 mph 2 mph 75% 0 in
04:14 75 °F 66.6 °F 30 in Calm   2.9 mph 75% 0 in
04:19 74.8 °F 66.4 °F 30 in OSO 0.4 mph 3.5 mph 75% 0 in
04:24 74.8 °F 66.6 °F 30 in SO 1.4 mph 3.6 mph 75.2% 0 in
04:29 74.8 °F 66.4 °F 30 in SSO 1.4 mph 4 mph 75% 0 in
04:34 74.8 °F 66.4 °F 30 in SSO 1.4 mph 4 mph 75% 0 in
04:39 74.8 °F 66.4 °F 30 in SSO 1 mph 2 mph 75% 0 in
04:44 74.8 °F 66.7 °F 30 in Calm     75.8% 0 in
04:49 74.7 °F 66.4 °F 30 in Calm   3.6 mph 75.1% 0 in
04:54 74.7 °F 66.2 °F 30 in Calm   4 mph 75% 0 in
04:59 74.7 °F 66.2 °F 30 in Calm   3 mph 75.1% 0 in
05:04 74.7 °F 66.6 °F 30 in Calm   4.6 mph 76% 0 in
05:09 74.3 °F 66.4 °F 30 in Este 0.6 mph 5 mph 76.4% 0 in
05:14 73.8 °F 66.4 °F 30 in ESE 1.8 mph 5 mph 77.4% 0 in
05:19 73.4 °F 66.2 °F 30 in ESE 2.2 mph 5.2 mph 78.4% 0 in
05:24 73 °F 66.2 °F 29.9 in ESE 3.1 mph 5 mph 79% 0 in
05:29 73 °F 66.2 °F 29.9 in ESE 2.8 mph 5 mph 79.1% 0 in
05:34 73 °F 66.2 °F 29.9 in SE 2 mph 5.2 mph 79.2% 0 in
05:39 73 °F 66.4 °F 29.9 in SSE 2.3 mph 5 mph 79.7% 0 in
05:44 73 °F 66 °F 29.9 in Sur 2.9 mph 5 mph 79% 0 in
05:49 73 °F 66 °F 29.9 in Sur 2.9 mph 5.2 mph 79% 0 in
05:54 73 °F 66.2 °F 29.9 in Sur 2.9 mph 5 mph 79% 0 in
05:59 73 °F 66.2 °F 29.9 in SSE 3 mph 5 mph 79% 0 in
06:04 73.2 °F 66.2 °F 29.9 in SSE 3.1 mph 5 mph 79% 0 in
06:09 73.2 °F 66.2 °F 29.9 in SSE 2.6 mph 3.6 mph 78.5% 0 in
06:14 73.2 °F 66.4 °F 29.9 in NO 1.4 mph 4 mph 79% 0 in
06:19 73 °F 66.2 °F 30 in ONO 1.6 mph 4.6 mph 79.3% 0 in
06:24 72.9 °F 66.2 °F 30 in ONO 2 mph 5 mph 80% 0 in
06:29 72.7 °F 66.4 °F 30 in ONO 1.4 mph 2 mph 80.9% 0 in
06:34 72.7 °F 66.4 °F 30 in Calm     81% 0 in
06:39 72.7 °F 66.6 °F 30 in Calm     81% 0 in
06:44 72.7 °F 66.6 °F 30 in Calm     81% 0 in
06:49 72.7 °F 66.6 °F 30 in Calm     80.9% 0 in
06:54 72.7 °F 66.2 °F 30 in Calm   5.9 mph 80.1% 0 in
06:59 72.7 °F 66.2 °F 30 in SSE 1 mph 6 mph 79.9% 0 in
07:04 72.5 °F 65.7 °F 30 in Sur 2.9 mph 5 mph 79% 0 in
07:09 72.3 °F 65.5 °F 30 in Sur 2.9 mph 5 mph 79% 0 in
07:14 72.3 °F 65.7 °F 30 in Sur 2.9 mph 5 mph 79.6% 0 in
07:19 72.3 °F 65.8 °F 30 in Sur 3 mph 5.2 mph 80% 0 in
07:24 72.3 °F 65.8 °F 30 in SSE 3.1 mph 5 mph 80% 0 in
07:29 72.3 °F 65.5 °F 30 in SSE 3 mph 5 mph 79.2% 0 in
07:34 72.5 °F 65.7 °F 30 in Sur 2.9 mph 5 mph 79% 0 in
07:39 72.7 °F 65.5 °F 30 in SO 2.9 mph 5 mph 78.1% 0 in
07:44 72.7 °F 65.5 °F 30 in OSO 3.1 mph 5 mph 78% 0 in
07:49 72.9 °F 65.5 °F 30 in Oeste 3 mph 5 mph 78% 0 in
07:54 72.7 °F 65.3 °F 30 in Oeste 2.9 mph 6.9 mph 77.4% 0 in
07:59 72.5 °F 64.9 °F 30 in OSO 3.1 mph 7 mph 77% 0 in
08:04 72.5 °F 64.8 °F 30 in OSO 3.6 mph 6.2 mph 77% 0 in
08:09 72.5 °F 64.8 °F 30 in OSO 3.4 mph 6 mph 77% 0 in
08:14 72.7 °F 64.9 °F 30 in OSO 3.1 mph 5 mph 76.9% 0 in
08:19 72.7 °F 64.8 °F 30 in OSO 2.8 mph 5 mph 76% 0 in
08:24 72.9 °F 64.6 °F 30 in SO 2 mph 5 mph 75.3% 0 in
08:29 73 °F 64.8 °F 30 in SO 1.9 mph 5 mph 75% 0 in
08:34 73.4 °F 64.8 °F 30 in SO 1.8 mph 4.7 mph 74.2% 0 in
08:39 73.8 °F 64.6 °F 30 in OSO 1.9 mph 5.9 mph 73.3% 0 in
08:44 73.8 °F 64.6 °F 30 in SO 2 mph 7.4 mph 73% 0 in
08:49 73.8 °F 64.8 °F 30 in SSO 2.7 mph 9.7 mph 73.6% 0 in
08:54 73.6 °F 64.9 °F 30 in SSO 4.7 mph 10 mph 74.3% 0 in
08:59 73.4 °F 64.9 °F 30 in SSO 5 mph 9 mph 74.9% 0 in
09:04 73.4 °F 64.9 °F 30 in SSO 5.4 mph 9 mph 74.8% 0 in
09:09 73.6 °F 64.8 °F 30 in SSO 5.2 mph 7.4 mph 74% 0 in
09:14 73.8 °F 64.9 °F 30 in SSO 4.7 mph 7 mph 73.8% 0 in
09:19 74.1 °F 64.9 °F 30 in SSO 4.3 mph 7 mph 73% 0 in
09:24 74.5 °F 64.9 °F 30 in SSO 3.6 mph 6.9 mph 72.3% 0 in
09:29 74.7 °F 64.9 °F 30 in SSO 3.6 mph 7 mph 71.7% 0 in
09:34 75 °F 64.9 °F 30 in SSO 3.6 mph 7 mph 71% 0 in
09:39 75.2 °F 64.8 °F 30 in SSO 3.9 mph 7.4 mph 70.4% 0 in
09:44 75.2 °F 64.9 °F 30 in SSO 4.7 mph 8.1 mph 70.4% 0 in
09:49 75.4 °F 64.9 °F 30 in SSO 4.7 mph 8 mph 70% 0 in
09:54 75.6 °F 64.9 °F 30 in SO 4.7 mph 7 mph 69.8% 0 in
09:59 75.9 °F 64.9 °F 30 in Sur 4.3 mph 7 mph 69% 0 in
10:04 76.3 °F 64.8 °F 30 in Sur 3.6 mph 6 mph 67.6% 0 in
10:09 76.6 °F 64.6 °F 30 in Sur 3.5 mph 6 mph 66.6% 0 in
10:14 77 °F 64 °F 30 in SO 3.1 mph 6 mph 64.4% 0 in
10:19 77.4 °F 63.9 °F 30 in Sur 3.2 mph 6.9 mph 63.1% 0 in
10:24 77.9 °F 63.7 °F 30 in SSE 3.6 mph 7 mph 61.8% 0 in
10:29 78.4 °F 63.3 °F 30 in Sur 3.6 mph 6.9 mph 59.9% 0 in
10:34 78.8 °F 63.1 °F 30 in SSO 3.6 mph 7 mph 58.7% 0 in
10:39 79.2 °F 62.6 °F 30 in Sur 3.8 mph 8.1 mph 56.9% 0 in
10:44 79.3 °F 62.6 °F 30 in SSO 4.3 mph 8 mph 56.5% 0 in
10:49 79.9 °F 62.8 °F 30 in SSE 4.1 mph 7 mph 56% 0 in
10:54 80.2 °F 62.6 °F 30 in Sur 3.6 mph 6.2 mph 55% 0 in
10:59 80.6 °F 62.8 °F 30 in Sur 3.6 mph 6.2 mph 54.5% 0 in
11:04 80.8 °F 62.6 °F 30 in SO 3.6 mph 6 mph 54% 0 in
11:09 81.1 °F 62.8 °F 30 in Sur 3.4 mph 8.1 mph 53.6% 0 in
11:14 81.3 °F 62.6 °F 30 in SSE 3.1 mph 8 mph 53% 0 in
11:19 81.9 °F 62.8 °F 30 in OSO 3.2 mph 6.9 mph 52.7% 0 in
11:24 81.9 °F 63.1 °F 30 in Sur 3.6 mph 7 mph 53% 0 in
11:29 82.2 °F 63 °F 30 in SSE 3.4 mph 6 mph 52.2% 0 in
11:34 82.9 °F 63.3 °F 30 in Sur 2.9 mph 5 mph 51.6% 0 in
11:39 83.7 °F 63 °F 30 in Oeste 2.5 mph 5.9 mph 50.1% 0 in
11:44 83.8 °F 62.8 °F 30 in Oeste 1.8 mph 6 mph 49.2% 0 in
11:49 83.8 °F 62.8 °F 30 in NO 2 mph 6 mph 49.4% 0 in
11:54 84.4 °F 63.1 °F 30 in ESE 2.4 mph 5 mph 49.1% 0 in
11:59 84.7 °F 63.1 °F 30 in Este 2.4 mph 5 mph 48.4% 0 in
12:04 84.9 °F 63.1 °F 30 in ENE 2.4 mph 5 mph 48.2% 0 in
12:09 85.5 °F 63.5 °F 30 in ENE 2.4 mph 5.2 mph 48.2% 0 in
12:14 85.8 °F 63.9 °F 30 in ENE 2.4 mph 5.2 mph 48% 0 in
12:19 86.4 °F 64 °F 30 in NNE 2.4 mph 5.9 mph 47.5% 0 in
12:24 86.5 °F 63.7 °F 30 in NNE 2.4 mph 7.4 mph 46.8% 0 in
12:29 86.5 °F 63.5 °F 30 in North 2.6 mph 7 mph 46.3% 0 in
12:34 86.4 °F 63.1 °F 30 in NNE 3.1 mph 6.9 mph 46.1% 0 in
12:39 86.5 °F 63.3 °F 30 in North 3 mph 7 mph 46% 0 in
12:44 86.5 °F 63.3 °F 30 in Este 2.9 mph 6.2 mph 46% 0 in
12:49 86.7 °F 63.1 °F 30 in Este 2.9 mph 6 mph 45.4% 0 in
12:54 87.1 °F 63.3 °F 30 in ENE 3.1 mph 6 mph 45.5% 0 in
12:59 87.1 °F 62.8 °F 30 in NNE 3.3 mph 6.9 mph 44.4% 0 in
13:04 86.9 °F 63 °F 30 in NE 3.6 mph 8.1 mph 44.9% 0 in
13:09 87.1 °F 62.6 °F 30 in NNE 3.6 mph 8.5 mph 44.3% 0 in
13:14 87.3 °F 62.2 °F 30 in ESE 3.6 mph 9 mph 43.5% 0 in
13:19 87.4 °F 63.1 °F 30 in Este 3.8 mph 8 mph 44.4% 0 in
13:24 87.6 °F 63 °F 30 in NNE 4.3 mph 7 mph 44% 0 in
13:29 87.8 °F 63.7 °F 30 in NE 4.4 mph 9.2 mph 44.7% 0 in
13:34 88.2 °F 63.5 °F 30 in ENE 4.7 mph 9 mph 44% 0 in
13:39 88.2 °F 63.7 °F 30 in ENE 4.7 mph 9.2 mph 44.3% 0 in
13:44 88 °F 63.5 °F 30 in NO 4.7 mph 9 mph 44.3% 0 in
13:49 88.2 °F 63.5 °F 30 in ENE 4.5 mph 9.2 mph 44.1% 0 in
13:54 88.2 °F 63.5 °F 30 in ENE 4 mph 9.2 mph 43.9% 0 in
13:59 88.5 °F 63.3 °F 30 in Este 4.2 mph 9 mph 43.2% 0 in
14:04 88.7 °F 63.1 °F 30 in NE 4.7 mph 11.5 mph 42.8% 0 in
14:09 88.5 °F 63.1 °F 29.9 in NE 5.2 mph 12 mph 42.9% 0 in
14:14 88.9 °F 63 °F 29.9 in NE 6.2 mph 11 mph 42.3% 0 in
14:19 89.1 °F 62.8 °F 29.9 in North 5.5 mph 7 mph 41.7% 0 in
14:24 89.4 °F 63.7 °F 29.9 in NE 3.6 mph 8.5 mph 42.4% 0 in
14:29 89.8 °F 63.7 °F 29.9 in NE 3.4 mph 9 mph 42.1% 0 in
14:34 90 °F 63.7 °F 29.9 in NE 2.9 mph 7 mph 41.7% 0 in
14:39 90.1 °F 63.7 °F 29.9 in NE 3.1 mph 8.7 mph 41.6% 0 in
14:44 90.1 °F 64.2 °F 29.9 in Este 3.6 mph 9.7 mph 42.3% 0 in
14:49 90.1 °F 64.2 °F 29.9 in ESE 4.4 mph 12.3 mph 42.4% 0 in
14:54 90.1 °F 63.9 °F 29.9 in ESE 6.4 mph 13.7 mph 41.9% 0 in
14:59 89.8 °F 63.7 °F 29.9 in Sur 6.6 mph 14 mph 42% 0 in
15:04 90 °F 63.7 °F 29.9 in ESE 6.9 mph 15.2 mph 41.8% 0 in
15:09 90 °F 63.9 °F 29.9 in ESE 7 mph 15 mph 42% 0 in
15:14 90.1 °F 63.5 °F 29.9 in SSE 7.4 mph 14 mph 41.1% 0 in
15:19 90.5 °F 63.3 °F 29.9 in SSE 7.3 mph 12.7 mph 40.8% 0 in
15:24 90.7 °F 63.3 °F 29.9 in ESE 6.9 mph 15 mph 40.4% 0 in
15:29 90.7 °F 63 °F 29.9 in SE 7 mph 15 mph 40% 0 in
15:34 90.5 °F 63 °F 29.9 in SE 7.4 mph 13 mph 40.1% 0 in
15:39 90.9 °F 63.1 °F 29.9 in SSE 6.7 mph 11.5 mph 40% 0 in
15:44 90.7 °F 63 °F 29.9 in ESE 5.2 mph 15 mph 39.9% 0 in
15:49 90.7 °F 63 °F 29.9 in ESE 5.8 mph 16.8 mph 39.9% 0 in
15:54 90.7 °F 62.6 °F 29.9 in SE 7.4 mph 17.3 mph 39.5% 0 in
15:59 91 °F 63.7 °F 29.9 in SE 7.8 mph 17 mph 40.5% 0 in
16:04 91 °F 64.2 °F 29.9 in SE 8.5 mph 15 mph 41.3% 0 in
16:09 90.7 °F 63.7 °F 29.9 in Este 8.8 mph 15 mph 41.1% 0 in
16:14 90.7 °F 63.7 °F 29.9 in Este 9.7 mph 15.2 mph 41% 0 in
16:19 90.9 °F 64.6 °F 29.9 in ESE 9 mph 15 mph 41.9% 0 in
16:24 90.9 °F 64.2 °F 29.9 in ESE 7.4 mph 15.2 mph 41.4% 0 in
16:29 90.7 °F 65.3 °F 29.9 in ESE 8.1 mph 16 mph 43.3% 0 in
16:34 90.5 °F 64.9 °F 29.9 in ESE 9.7 mph 16.3 mph 43.1% 0 in
16:39 90 °F 64.8 °F 29.9 in Este 9.7 mph 16 mph 43.5% 0 in
16:44 90 °F 65.3 °F 29.9 in ESE 9.7 mph 15 mph 44.2% 0 in
16:49 90.1 °F 65.7 °F 29.9 in SE 9.3 mph 15 mph 44.7% 0 in
16:54 90 °F 65.8 °F 29.9 in SE 8.5 mph 15 mph 45.1% 0 in
16:59 89.4 °F 65.5 °F 29.9 in SE 8.7 mph 15 mph 45.3% 0 in
17:04 89.2 °F 65.3 °F 29.9 in SE 9.2 mph 15 mph 45.3% 0 in
17:09 89.2 °F 65.3 °F 29.9 in SE 9 mph 16.1 mph 45.2% 0 in
17:14 89.1 °F 65.5 °F 29.9 in ESE 8.5 mph 16 mph 45.8% 0 in
17:19 88.7 °F 65.8 °F 29.9 in ESE 8.5 mph 15 mph 46.8% 0 in
17:24 88.3 °F 65.7 °F 29.9 in ESE 8.5 mph 15 mph 47% 0 in
17:29 88.3 °F 65.5 °F 29.9 in ESE 8.1 mph 14 mph 46.9% 0 in
17:34 88.2 °F 65.5 °F 29.9 in ESE 7.4 mph 13 mph 47% 0 in
17:39 88 °F 65.5 °F 29.9 in ESE 7.7 mph 13 mph 47.4% 0 in
17:44 88 °F 65.8 °F 29.9 in ESE 8.5 mph 13 mph 48% 0 in
17:49 88 °F 65.7 °F 29.9 in ESE 8.3 mph 14 mph 47.9% 0 in
17:54 87.6 °F 65.5 °F 29.9 in ESE 7.6 mph 15 mph 48% 0 in
17:59 87.4 °F 65.7 °F 29.9 in ESE 8.3 mph 15.2 mph 48.7% 0 in
18:04 87.3 °F 65.8 °F 29.9 in ESE 9.7 mph 15 mph 49% 0 in
18:09 87.3 °F 65.7 °F 29.9 in ESE 9.4 mph 14 mph 49% 0 in
18:14 87.1 °F 65.5 °F 29.9 in ESE 8.7 mph 14 mph 49% 0 in
18:19 86.9 °F 65.5 °F 29.9 in ESE 8.5 mph 14 mph 49% 0 in
18:24 87.1 °F 65.5 °F 29.9 in ESE 8.1 mph 13.8 mph 48.7% 0 in
18:29 87.3 °F 65.3 °F 29.9 in ESE 7.9 mph 14.7 mph 48% 0 in
18:34 87.4 °F 65.1 °F 29.9 in ESE 7.4 mph 15.2 mph 47.6% 0 in
18:39 87.4 °F 64.8 °F 29.9 in ESE 8.1 mph 15 mph 47% 0 in
18:44 87.4 °F 64.8 °F 29.9 in ESE 9.7 mph 17 mph 47.3% 0 in
18:49 87.4 °F 64.8 °F 29.9 in ESE 9.5 mph 17.5 mph 47% 0 in
18:54 87.4 °F 64.6 °F 29.9 in ESE 9.2 mph 17 mph 47% 0 in
18:59 87.1 °F 64.4 °F 29.9 in SE 8.8 mph 14 mph 47% 0 in
19:04 87.1 °F 64.4 °F 29.9 in SE 8.1 mph 13.8 mph 47% 0 in
19:09 87.3 °F 64.2 °F 29.9 in SE 8.2 mph 15 mph 46.2% 0 in
19:14 87.3 °F 64 °F 29.9 in ESE 8.5 mph 15 mph 46% 0 in
19:19 87.3 °F 64 °F 29.9 in ESE 8.1 mph 13 mph 46% 0 in
19:24 87.3 °F 64 °F 29.9 in ESE 7.4 mph 12 mph 46% 0 in
19:29 87.4 °F 64 °F 29.9 in ESE 6.7 mph 8.5 mph 46% 0 in
19:34 87.3 °F 64.2 °F 29.9 in ESE 5.2 mph 10.4 mph 46.4% 0 in
19:39 87.1 °F 64.2 °F 29.9 in ESE 5.2 mph 10 mph 46.8% 0 in
19:44 86.9 °F 64.2 °F 29.9 in ESE 5.2 mph 10.7 mph 47% 0 in
19:49 86.7 °F 64.2 °F 29.9 in SE 5.4 mph 11 mph 47% 0 in
19:54 86.7 °F 64.8 °F 29.9 in ESE 5.9 mph 10.4 mph 48.2% 0 in
19:59 86.4 °F 65.7 °F 29.9 in ESE 6 mph 10 mph 50% 0 in
20:04 86.2 °F 66 °F 29.9 in SE 6.2 mph 9.2 mph 51.4% 0 in
20:09 85.8 °F 66.2 °F 29.9 in SE 6 mph 9 mph 52% 0 in
20:14 85.6 °F 66 °F 29.9 in ESE 5.4 mph 9 mph 52.2% 0 in
20:19 85.3 °F 66.2 °F 29.9 in ESE 5.4 mph 9.2 mph 53% 0 in
20:24 84.9 °F 66.4 °F 29.9 in ESE 5.4 mph 9 mph 53.9% 0 in
20:29 84.7 °F 66.4 °F 29.9 in ESE 5.2 mph 9.2 mph 54% 0 in
20:34 84.7 °F 66.2 °F 29.9 in ESE 4.7 mph 9 mph 54% 0 in
20:39 84.4 °F 66.2 °F 29.9 in ESE 4.9 mph 9.2 mph 54.5% 0 in
20:44 84 °F 66.2 °F 29.9 in ESE 5.4 mph 9.2 mph 55% 0 in
20:49 83.8 °F 66 °F 29.9 in ESE 5.7 mph 9 mph 55.3% 0 in
20:54 83.7 °F 66.4 °F 29.9 in ESE 6.2 mph 9 mph 56% 0 in
20:59 83.7 °F 66.4 °F 29.9 in SE 5.5 mph 6.4 mph 56% 0 in
21:04 83.7 °F 66.2 °F 29.9 in ESE 4 mph 6 mph 56% 0 in
21:09 83.5 °F 66 °F 29.9 in SE 3.9 mph 6 mph 56% 0 in
21:14 83.3 °F 66 °F 29.9 in SE 3.6 mph 6 mph 56% 0 in
21:19 83.1 °F 66 °F 29.9 in ESE 3.7 mph 6.9 mph 56.4% 0 in
21:24 82.9 °F 66 °F 29.9 in ESE 4 mph 7.4 mph 57% 0 in
21:29 82.8 °F 66.2 °F 29.9 in ESE 4.3 mph 7.4 mph 57.6% 0 in
21:34 82.6 °F 66.2 °F 29.9 in ESE 5.2 mph 7 mph 58% 0 in
21:39 82.4 °F 66.6 °F 29.9 in ESE 4.9 mph 7 mph 58.9% 0 in
21:44 82.2 °F 66.6 °F 29.9 in ESE 4.3 mph 8.5 mph 59.2% 0 in
21:49 82 °F 66.7 °F 29.9 in ESE 4.4 mph 9 mph 60% 0 in
21:54 81.9 °F 66.6 °F 29.9 in ESE 4.7 mph 7 mph 60.1% 0 in
21:59 81.7 °F 66.6 °F 29.9 in SE 4.6 mph 8.1 mph 60.4% 0 in
22:04 81.7 °F 66.4 °F 29.9 in ESE 4.3 mph 8 mph 60% 0 in
22:09 81.7 °F 66.4 °F 29.9 in SE 4.2 mph 6 mph 60.1% 0 in
22:14 81.7 °F 66.4 °F 29.9 in SE 4 mph 7.4 mph 60.1% 0 in
22:19 81.3 °F 66.2 °F 29.9 in SE 4 mph 7 mph 60% 0 in
22:24 81.3 °F 65.8 °F 29.9 in ESE 4 mph 7 mph 59.3% 0 in
22:29 81.1 °F 65.5 °F 29.9 in ESE 3.7 mph 6 mph 59% 0 in
22:34 81.1 °F 65.1 °F 29.9 in ESE 2.9 mph 5 mph 58.2% 0 in
22:39 81.1 °F 64.6 °F 29.9 in ESE 2.5 mph 4.6 mph 57.2% 0 in
22:44 81.1 °F 64.6 °F 29.9 in ESE 1.8 mph 5 mph 57% 0 in
22:49 81.1 °F 64.4 °F 29.9 in Este 1.7 mph 3 mph 56.9% 0 in
22:54 81.1 °F 63.7 °F 29.9 in ESE 1.4 mph 3.6 mph 55.5% 0 in
22:59 81.1 °F 63.5 °F 29.9 in Este 1.6 mph 4 mph 55.4% 0 in
23:04 81.1 °F 64.6 °F 29.9 in Este 1.8 mph 4 mph 57.4% 0 in
23:09 81 °F 64.6 °F 29.9 in Este 1.2 mph 3 mph 57.4% 0 in
23:14 80.8 °F 64.4 °F 29.9 in Calm   3.6 mph 57.6% 0 in
23:19 80.6 °F 63.9 °F 29.9 in Este 0.6 mph 4.6 mph 56.5% 0 in
23:24 80.6 °F 63.9 °F 29.9 in Este 2 mph 5 mph 56.6% 0 in
23:29 80.6 °F 64.2 °F 29.9 in Este 1.8 mph 4.3 mph 57.4% 0 in
23:34 80.4 °F 64.4 °F 29.9 in NNE 1.4 mph 5 mph 58.4% 0 in
23:39 80.2 °F 64.8 °F 29.9 in NNE 1.6 mph 5 mph 59.6% 0 in
23:44 79.9 °F 64.8 °F 29.9 in NE 2 mph 5 mph 60.1% 0 in
23:49 79.7 °F 64.9 °F 29.9 in NE 2 mph 4 mph 61% 0 in
23:54 79.5 °F 65.3 °F 29.9 in NE 2 mph 4.6 mph 61.9% 0 in
23:59 79.3 °F 65.1 °F 29.9 in NE 1.9 mph 5 mph 62% 0 in
Murcia-Puente Tocinos, Espa?a
Compliments of Weather Underground - 3.25 mb

La estación de MeteoMurcia.com, publica sus datos en los siguientes proyectos:

Weather Underground PWS IMURCIAP2 Meteoclimatic www.awekas.at

Web Analytics

Clicky